Terminal Aerodrome Forecast
Issued by NWS Charleston, WV

Current Version | Previous Version | Text Only | Print | Product List | Glossary Off
Versions: 1 2 3 4 5 6 7 8 9 10 11 12 13 14 15 16 17 18

000
FTUS41 KRLX 171600 AAA
TAFHTS
TAF AMD
KHTS 171605Z 1716/1812 26007KT P6SM OVC018
     FM172100 26007KT P6SM OVC025
     FM172300 26007KT P6SM OVC016=

USA.gov is the U.S. government's official web portal to all federal, state and local government web resources and services.